Flight Track Log - Related Links

Times and Time Zones

All times are in EDT time to prevent confusion due to time zone crossing. See the SWA2852 flight status page for this flight to view local times or setup timezone preferences in your user account.

Time Position Orientation Groundspeed Altitude Reporting Facility
EDT Latitude Longitude Course Direction KTS MPH feet Rate Location/Type
Thu 07:33:03 AM 36.1000 -86.6833 287° West 147 169 1,500  Level Nashville TRACON
Thu 07:34:15 AM 36.1167 -86.7500 287° West 242 278 5,300 3,099 Climbing Nashville TRACON
Thu 07:36:05 AM 36.2222 -86.8789 315° West 310 357 10,900 3,141 Climbing Memphis Center
Thu 07:37:05 AM 36.3022 -86.9808 314° West 344 396 14,200 3,620 Climbing Memphis Center
Thu 07:38:06 AM 36.3756 -87.0706 315° West 375 432 18,200 3,700 Climbing Memphis Center
Thu 07:39:05 AM 36.4511 -87.1656 315° West 375 432 21,600 3,126 Climbing Memphis Center
Thu 07:40:05 AM 36.5244 -87.2633 313° West 375 432 24,400 2,550 Climbing Memphis Center
Thu 07:41:05 AM 36.6039 -87.3611 315° West 392 451 26,700 2,000 Climbing Memphis Center
Thu 07:42:05 AM 36.7194 -87.4061 343° North 405 466 28,400 1,700 Climbing Memphis Center
Thu 07:43:05 AM 36.8308 -87.4383 347° North 434 499 30,100 1,850 Climbing Memphis Center
Thu 07:44:05 AM 36.9547 -87.4753 347° North 455 524 32,100 2,000 Climbing Memphis Center
Thu 07:45:05 AM 37.0764 -87.5100 347° North 455 524 34,100 1,510 Climbing Memphis Center
Thu 07:46:40 AM 37.2733 -87.5658 347° North 455 524 36,000 755 Climbing Kansas City Center
Thu 07:47:36 AM 37.3861 -87.5992 347° North 447 514 36,000 615 Level Indianapolis Center
Thu 07:48:37 AM 37.5083 -87.6347 347° North 446 513 37,200 1,525 Climbing Indianapolis Center
Thu 07:49:38 AM 37.6269 -87.6714 346° North 437 503 39,100 1,377 Climbing Indianapolis Center
Thu 07:50:39 AM 37.7392 -87.7144 343° North 422 486 40,000 443 Climbing Indianapolis Center
Thu 07:51:40 AM 37.8519 -87.7808 335° Northwest 417 480 40,000  Level Indianapolis Center
Thu 07:52:41 AM 37.9597 -87.8369 338° Northwest 415 478 40,000  Level Indianapolis Center
Thu 07:53:41 AM 38.0675 -87.8944 337° Northwest 416 479 40,000  Level Kansas City Center
Thu 07:54:43 AM 38.1750 -87.9492 338° Northwest 414 476 40,000  Level Indianapolis Center
Thu 07:55:44 AM 38.2814 -88.0047 338° Northwest 412 474 40,000  Level Indianapolis Center
Thu 07:56:43 AM 38.3892 -88.0625 337° Northwest 414 476 40,000  Level Kansas City Center
Thu 07:57:44 AM 38.4964 -88.1197 337° Northwest 414 476 40,000  Level Kansas City Center
Thu 07:58:44 AM 38.6042 -88.1764 338° Northwest 415 478 40,000  Level Kansas City Center
Thu 07:59:48 AM 38.7114 -88.2350 337° Northwest 416 479 40,000  Level Kansas City Center
Thu 08:00:49 AM 38.8083 -88.3142 328° Northwest 413 475 40,000  Level Kansas City Center
Thu 08:01:48 AM 38.9039 -88.3983 326° Northwest 414 476 40,000  Level Kansas City Center
Thu 08:02:49 AM 38.9908 -88.4947 319° Northwest 413 475 40,000  Level Kansas City Center
Thu 08:03:48 AM 39.0800 -88.5906 320° Northwest 414 476 40,000  Level Kansas City Center
Thu 08:04:48 AM 39.1639 -88.7011 314° West 416 479 40,000  Level Kansas City Center
Thu 08:05:51 AM 39.2392 -88.8103 312° West 411 473 40,000  Level Kansas City Center
Thu 08:06:52 AM 39.3161 -88.9197 312° West 411 473 40,000  Level Kansas City Center
Thu 08:07:53 AM 39.3961 -89.0300 313° West 418 481 40,000  Level Kansas City Center
Thu 08:08:53 AM 39.4744 -89.1489 311° West 418 481 40,000  Level Kansas City Center
Thu 08:09:52 AM 39.5372 -89.2647 305° West 415 478 40,000  Level Kansas City Center
Thu 08:10:56 AM 39.5989 -89.3872 303° West 411 473 40,000  Level Kansas City Center
Thu 08:11:54 AM 39.6600 -89.5128 302° West 412 474 40,000  Level Kansas City Center
Thu 08:12:55 AM 39.6881 -89.6497 285° West 402 463 40,000  Level Kansas City Center
Thu 08:13:56 AM 39.6867 -89.7844 269° West 382 440 40,000  Level Kansas City Center
Thu 08:14:57 AM 39.6878 -89.9211 271° West 382 440 40,000  Level Kansas City Center
Thu 08:15:58 AM 39.6883 -90.0906 270° West 389 448 40,000  Level Kansas City Center
Thu 08:17:00 AM 39.6889 -90.2361 270° West 399 459 40,000  Level Kansas City Center
Thu 08:18:00 AM 39.6881 -90.3808 270° West 402 463 40,000  Level Kansas City Center
Thu 08:19:02 AM 39.6886 -90.5269 270° West 405 466 40,000  Level Kansas City Center
Thu 08:20:02 AM 39.6881 -90.6706 270° West 403 464 40,000  Level Kansas City Center
Thu 08:21:04 AM 39.6872 -90.8119 270° West 397 457 40,000  Level Kansas City Center
Thu 08:22:03 AM 39.6853 -90.9553 269° West 398 458 40,000  Level Kansas City Center
Thu 08:23:04 AM 39.6853 -91.0981 270° West 399 459 40,000  Level Kansas City Center
Thu 08:24:05 AM 39.6850 -91.2417 270° West 399 459 40,000  Level Kansas City Center
Thu 08:25:08 AM 39.6825 -91.3953 269° West 403 464 40,000  Level Kansas City Center
Thu 08:26:07 AM 39.6808 -91.5408 269° West 404 465 40,000  Level Kansas City Center
Thu 08:27:10 AM 39.6783 -91.6858 269° West 404 465 40,000  Level Kansas City Center
Thu 08:28:10 AM 39.6781 -91.8278 270° West 400 460 40,000  Level Kansas City Center
Thu 08:29:10 AM 39.6739 -92.0003 268° West 399 459 40,000  Level Kansas City Center
Thu 08:30:12 AM 39.6728 -92.1419 269° West 396 456 40,000  Level Kansas City Center
Thu 08:31:13 AM 39.6700 -92.2833 269° West 394 453 40,000  Level Kansas City Center
Thu 08:32:14 AM 39.7069 -92.4308 288° West 423 487 40,000  Level Kansas City Center
Thu 08:33:14 AM 39.7500 -92.5708 292° West 423 487 40,000 -435 Level Kansas City Center
Thu 08:34:18 AM 39.7514 -92.7150 271° West 405 466 39,100 -1,200 Descending Kansas City Center
Thu 08:35:19 AM 39.7381 -92.8464 263° West 379 436 37,500 -2,481 Descending Kansas City Center
Thu 08:36:31 AM 39.7211 -93.0181 263° West 391 450 33,600 -2,797 Descending Kansas City Center
Thu 08:37:32 AM 39.7072 -93.1594 263° West 396 456 31,300 -2,200 Descending Kansas City Center
Thu 08:38:31 AM 39.6914 -93.2922 261° West 381 438 29,200 -2,033 Descending Kansas City Center
Thu 08:39:33 AM 39.6794 -93.4219 263° West 370 426 27,200 -2,146 Descending Kansas City Center
Thu 08:40:34 AM 39.6639 -93.5703 262° West 354 407 24,800 -2,064 Descending Kansas City Center
Thu 08:41:38 AM 39.6511 -93.6883 262° West 336 387 22,900 -1,805 Descending Kansas City Center
Thu 08:42:37 AM 39.6383 -93.8022 262° West 324 373 21,100 -1,765 Descending Kansas City Center
Thu 08:43:37 AM 39.6206 -93.8997 257° West 296 341 19,400 -1,934 Descending Kansas City Center
Thu 08:44:38 AM 39.5731 -93.9903 236° Southwest 270 311 17,200 -1,824 Descending Kansas City Center
Thu 08:45:42 AM 39.5356 -94.0678 238° Southwest 265 305 15,600 -1,525 Descending Kansas City Center
Thu 08:46:40 AM 39.4967 -94.1425 236° Southwest 261 300 14,100 -1,664 Descending Kansas City Center
Thu 08:47:41 AM 39.4536 -94.2275 237° Southwest 253 291 12,300 -1,024 Descending Kansas City Center
Thu 08:48:43 AM 39.4181 -94.2972 237° Southwest 242 278 12,000 -145 Descending Kansas City Center
Thu 08:49:45 AM 39.3822 -94.3681 237° Southwest 248 285 12,000 -49 Level Kansas City Center
Thu 08:50:46 AM 39.3306 -94.4689 237° Southwest 298 343 11,900 -248 Descending Kansas City Center
Thu 08:51:46 AM 39.2947 -94.5378 236° Southwest 245 282 11,500 -992 Descending Kansas City Center
Thu 08:52:47 AM 39.2558 -94.5992 231° Southwest 206 237 9,900 -1,805 Descending Kansas City Center
Thu 08:53:49 AM 39.1983 -94.6094 188° South 217 250 7,800 -1,805 Descending Kansas City Center
Thu 08:54:50 AM 39.1414 -94.6222 190° South 217 250 6,200 -1,403 Descending Kansas City Center
Thu 08:55:53 AM 39.0922 -94.6581 209° Southwest 208 239 4,900 -1,024 Descending Kansas City Center
Thu 08:56:53 AM 39.1036 -94.7253 282° West 197 227 4,100 -843 Descending Kansas City Center
Thu 08:57:54 AM 39.1439 -94.7494 335° Northwest 187 215 3,200 -732 Descending Kansas City Center
Thu 08:58:56 AM 39.1950 -94.7344 13° North 170 196 2,600 -595 Descending Kansas City Center
Thu 08:59:55 AM 39.2372 -94.7225 12° North 164 189 2,000 -683 Descending Kansas City Center
Thu 09:00:59 AM 39.2742 -94.7122 12° North 123 142 1,200 -750 Descending Kansas City Center

Login

Don't have an account? Register now (free) for customized features, flight alerts, and more!